Time;durP1;ratioP1;P1;durP2;ratioP2;P2;SDS_P1;SDS_P2;PMS_P1;PMS_P2;Temp;Humidity;BMP_temperature;BMP_pressure;BME280_temperature;BME280_humidity;BME280_pressure;Samples;Min_cycle;Max_cycle;Signal;HPM_P1;HPM_P2
2021/11/23 00:01:06;;;;;;;3.45;1.67;;;;;;;;;;6141069;23;20005;-71
2021/11/23 00:03:32;;;;;;;4.25;1.73;;;;;;;;;;6142954;23;20008;-70
2021/11/23 00:05:58;;;;;;;6.15;2.00;;;;;;;;;;6143531;23;20011;-72
2021/11/23 00:08:24;;;;;;;5.15;1.90;;;;;;;;;;6142101;23;20001;-71
2021/11/23 00:10:50;;;;;;;5.78;2.08;;;;;;;;;;6142834;23;20342;-70
2021/11/23 00:13:17;;;;;;;6.15;2.30;;;;;;;;;;6141728;23;20104;-71
2021/11/23 00:15:43;;;;;;;3.60;1.92;;;;;;;;;;6143759;23;20053;-72
2021/11/23 00:18:11;;;;;;;2.47;1.60;;;;;;;;;;6143951;23;20028;-71
2021/11/23 00:20:38;;;;;;;5.60;2.00;;;;;;;;;;6142351;23;20005;-72
2021/11/23 00:23:04;;;;;;;3.83;1.98;;;;;;;;;;6143943;23;20005;-71
2021/11/23 00:25:31;;;;;;;9.80;1.92;;;;;;;;;;6142916;23;20009;-71
2021/11/23 00:27:58;;;;;;;4.00;1.90;;;;;;;;;;6143722;23;20005;-71
2021/11/23 00:30:24;;;;;;;3.88;1.90;;;;;;;;;;6143152;23;20055;-71
2021/11/23 00:32:51;;;;;;;5.13;1.88;;;;;;;;;;6143804;23;20029;-71
2021/11/23 00:35:18;;;;;;;3.72;2.00;;;;;;;;;;6142086;23;20037;-71
2021/11/23 00:37:46;;;;;;;3.13;1.65;;;;;;;;;;6143751;23;20017;-71
2021/11/23 00:40:13;;;;;;;3.70;1.95;;;;;;;;;;6143876;23;20002;-70
2021/11/23 00:42:39;;;;;;;3.20;1.42;;;;;;;;;;6141300;23;20009;-71
2021/11/23 00:45:06;;;;;;;4.00;1.80;;;;;;;;;;6143316;23;20002;-74
2021/11/23 00:47:32;;;;;;;4.22;1.50;;;;;;;;;;6142905;23;20081;-74
2021/11/23 00:49:58;;;;;;;4.38;1.50;;;;;;;;;;6143682;23;19997;-73
2021/11/23 00:52:25;;;;;;;2.42;1.90;;;;;;;;;;6143753;23;20519;-74
2021/11/23 00:54:51;;;;;;;5.32;1.80;;;;;;;;;;6141816;23;20001;-73
2021/11/23 00:57:17;;;;;;;4.20;1.95;;;;;;;;;;6143352;23;20021;-74
2021/11/23 00:59:43;;;;;;;5.25;1.80;;;;;;;;;;6143308;23;20009;-74
2021/11/23 01:02:11;;;;;;;5.10;2.38;;;;;;;;;;6143425;23;20012;-74
2021/11/23 01:04:38;;;;;;;3.35;1.70;;;;;;;;;;6143875;23;20001;-72
2021/11/23 01:07:04;;;;;;;3.03;1.63;;;;;;;;;;6143192;23;20001;-73
2021/11/23 01:09:30;;;;;;;3.47;1.83;;;;;;;;;;6142460;23;20010;-73
2021/11/23 01:11:57;;;;;;;4.88;1.95;;;;;;;;;;6142283;23;20458;-75
2021/11/23 01:14:23;;;;;;;4.88;2.00;;;;;;;;;;6143235;23;20060;-73
2021/11/23 01:16:49;;;;;;;5.63;1.98;;;;;;;;;;6143679;23;20013;-74
2021/11/23 01:19:16;;;;;;;4.78;1.73;;;;;;;;;;6116270;23;20005;-74
2021/11/23 01:21:43;;;;;;;4.63;2.10;;;;;;;;;;6143532;23;20071;-73
2021/11/23 01:24:10;;;;;;;6.00;2.00;;;;;;;;;;6138410;23;20308;-71
2021/11/23 01:26:36;;;;;;;5.03;2.25;;;;;;;;;;6137996;23;20107;-71
2021/11/23 01:29:03;;;;;;;4.03;1.90;;;;;;;;;;6140956;23;20012;-73
2021/11/23 01:31:29;;;;;;;3.35;2.22;;;;;;;;;;6142669;23;20015;-72
2021/11/23 01:33:55;;;;;;;5.03;2.20;;;;;;;;;;6142086;23;20374;-75
2021/11/23 01:36:22;;;;;;;3.78;2.22;;;;;;;;;;6141347;23;20017;-72
2021/11/23 01:38:48;;;;;;;4.43;2.28;;;;;;;;;;6141063;23;20132;-74
2021/11/23 01:41:14;;;;;;;5.40;2.10;;;;;;;;;;6142663;23;20158;-72
2021/11/23 01:43:40;;;;;;;2.65;1.80;;;;;;;;;;6143178;23;20443;-73
2021/11/23 01:46:07;;;;;;;2.83;1.90;;;;;;;;;;6143904;23;20033;-73
2021/11/23 01:48:34;;;;;;;3.78;1.95;;;;;;;;;;6141178;23;20150;-74
2021/11/23 01:51:00;;;;;;;3.33;2.30;;;;;;;;;;6117969;23;20013;-72
2021/11/23 01:53:27;;;;;;;4.78;2.00;;;;;;;;;;6143647;23;20005;-73
2021/11/23 01:55:53;;;;;;;3.42;1.80;;;;;;;;;;6143573;23;20010;-74
2021/11/23 01:58:19;;;;;;;2.90;2.03;;;;;;;;;;6141088;23;20029;-74
2021/11/23 02:00:46;;;;;;;3.20;2.08;;;;;;;;;;6143239;23;20051;-72
2021/11/23 02:03:13;;;;;;;3.33;1.88;;;;;;;;;;6142402;23;20447;-73
2021/11/23 02:05:39;;;;;;;2.67;1.80;;;;;;;;;;6141916;23;20009;-73
2021/11/23 02:08:06;;;;;;;5.05;2.00;;;;;;;;;;6143798;23;20009;-73
2021/11/23 02:10:33;;;;;;;6.30;2.10;;;;;;;;;;6143271;23;20005;-73
2021/11/23 02:12:59;;;;;;;8.90;1.90;;;;;;;;;;6140955;23;20430;-73
2021/11/23 02:15:26;;;;;;;7.18;2.20;;;;;;;;;;6143307;23;20009;-73
2021/11/23 02:17:52;;;;;;;2.92;1.90;;;;;;;;;;6143986;23;20026;-73
2021/11/23 02:20:19;;;;;;;4.95;1.70;;;;;;;;;;6143778;23;20005;-73
2021/11/23 02:22:46;;;;;;;3.63;2.00;;;;;;;;;;6138537;23;20028;-73
2021/11/23 02:25:12;;;;;;;2.22;1.60;;;;;;;;;;6146015;23;20011;-74
2021/11/23 02:27:39;;;;;;;2.35;1.60;;;;;;;;;;6146920;23;20013;-75
2021/11/23 02:30:06;;;;;;;3.05;1.60;;;;;;;;;;6147048;23;20002;-74
2021/11/23 02:32:43;;;;;;;2.05;1.50;;;;;;;;;;6146589;23;20013;-75
2021/11/23 02:35:10;;;;;;;4.53;2.05;;;;;;;;;;6146254;23;20011;-72
2021/11/23 02:37:43;;;;;;;2.17;1.33;;;;;;;;;;6144428;23;20501;-74
2021/11/23 02:40:09;;;;;;;4.28;1.30;;;;;;;;;;6146129;23;20411;-74
2021/11/23 02:42:35;;;;;;;2.83;1.40;;;;;;;;;;6145511;23;20038;-74
2021/11/23 02:45:02;;;;;;;2.08;1.10;;;;;;;;;;6144316;23;20001;-73
2021/11/23 02:47:32;;;;;;;2.40;1.42;;;;;;;;;;6145903;23;20537;-73
2021/11/23 02:49:58;;;;;;;2.47;1.50;;;;;;;;;;6146084;23;20438;-74
2021/11/23 02:52:24;;;;;;;4.35;1.40;;;;;;;;;;6144566;23;20002;-74
2021/11/23 02:54:57;;;;;;;3.55;1.40;;;;;;;;;;6146514;23;20005;-74
2021/11/23 02:57:24;;;;;;;5.78;1.50;;;;;;;;;;6119949;23;20039;-74
2021/11/23 02:59:51;;;;;;;2.15;1.30;;;;;;;;;;6146017;23;20004;-73
2021/11/23 03:02:17;;;;;;;1.80;1.10;;;;;;;;;;6146178;23;20012;-75
2021/11/23 03:04:43;;;;;;;2.15;1.40;;;;;;;;;;6144931;23;20058;-74
2021/11/23 03:07:13;;;;;;;1.83;1.25;;;;;;;;;;6145506;23;20573;-75
2021/11/23 03:09:39;;;;;;;2.67;1.60;;;;;;;;;;6146060;23;20431;-75
2021/11/23 03:12:05;;;;;;;3.20;1.80;;;;;;;;;;6144810;23;20861;-74
2021/11/23 03:14:31;;;;;;;3.30;2.03;;;;;;;;;;6144198;23;20059;-76
2021/11/23 03:16:57;;;;;;;2.85;1.48;;;;;;;;;;6145804;23;20017;-75
2021/11/23 03:19:23;;;;;;;5.93;2.03;;;;;;;;;;6145841;23;20362;-74
2021/11/23 03:21:50;;;;;;;3.75;1.40;;;;;;;;;;6146065;23;20471;-75
2021/11/23 03:24:16;;;;;;;3.13;1.58;;;;;;;;;;6144196;23;19997;-74
2021/11/23 03:26:42;;;;;;;6.57;2.00;;;;;;;;;;6149635;23;20049;-73
2021/11/23 03:29:08;;;;;;;3.22;1.40;;;;;;;;;;6144187;23;20006;-74
2021/11/23 03:31:34;;;;;;;4.85;1.95;;;;;;;;;;6148719;23;20410;-75
2021/11/23 03:34:01;;;;;;;3.53;1.70;;;;;;;;;;6147841;23;20001;-74
2021/11/23 03:36:27;;;;;;;3.70;1.98;;;;;;;;;;6146837;23;20020;-74
2021/11/23 03:38:53;;;;;;;3.85;1.80;;;;;;;;;;6148976;23;20126;-74
2021/11/23 03:41:19;;;;;;;3.15;1.80;;;;;;;;;;6149036;23;20414;-74
2021/11/23 03:43:45;;;;;;;5.00;2.22;;;;;;;;;;6147508;23;20006;-72
2021/11/23 03:46:12;;;;;;;4.05;1.55;;;;;;;;;;6148187;23;20366;-71
2021/11/23 03:48:38;;;;;;;2.47;1.50;;;;;;;;;;6147415;23;20009;-71
2021/11/23 03:51:04;;;;;;;6.68;2.22;;;;;;;;;;6146400;23;20013;-71
2021/11/23 03:53:31;;;;;;;2.95;1.85;;;;;;;;;;6146751;23;20009;-71
2021/11/23 03:55:57;;;;;;;2.67;1.95;;;;;;;;;;6147035;23;20001;-71
2021/11/23 03:58:23;;;;;;;5.35;2.17;;;;;;;;;;6145659;23;20021;-72
2021/11/23 04:00:49;;;;;;;2.83;1.90;;;;;;;;;;6147562;23;20399;-71
2021/11/23 04:03:15;;;;;;;3.45;1.90;;;;;;;;;;6140460;23;20327;-72
2021/11/23 04:05:41;;;;;;;2.70;2.08;;;;;;;;;;6143393;23;20211;-73
2021/11/23 04:08:07;;;;;;;3.65;2.10;;;;;;;;;;6141175;23;20005;-71
2021/11/23 04:10:33;;;;;;;2.75;1.67;;;;;;;;;;6142587;23;20002;-71
2021/11/23 04:13:00;;;;;;;5.47;1.88;;;;;;;;;;6138964;23;20056;-72
2021/11/23 04:15:26;;;;;;;4.82;1.90;;;;;;;;;;6139541;23;20009;-71
2021/11/23 04:17:52;;;;;;;3.13;1.75;;;;;;;;;;6138567;23;20017;-71
2021/11/23 04:20:18;;;;;;;3.00;1.67;;;;;;;;;;6139316;23;20067;-71
2021/11/23 04:22:44;;;;;;;2.78;1.80;;;;;;;;;;6140548;23;20502;-71
2021/11/23 04:25:11;;;;;;;3.67;1.88;;;;;;;;;;6139967;23;20040;-72
2021/11/23 04:27:38;;;;;;;2.90;1.67;;;;;;;;;;6137836;23;20300;-71
2021/11/23 04:30:05;;;;;;;2.67;1.80;;;;;;;;;;6139776;23;20001;-71
2021/11/23 04:32:32;;;;;;;3.22;1.90;;;;;;;;;;6138962;23;20097;-72
2021/11/23 04:34:58;;;;;;;3.03;2.00;;;;;;;;;;6136766;23;20009;-72
2021/11/23 04:37:24;;;;;;;2.03;1.70;;;;;;;;;;6138970;23;20013;-71
2021/11/23 04:39:52;;;;;;;3.65;1.70;;;;;;;;;;6140248;23;20009;-71
2021/11/23 04:42:18;;;;;;;2.67;1.58;;;;;;;;;;6137747;23;20419;-72
2021/11/23 04:44:44;;;;;;;3.00;1.85;;;;;;;;;;6137561;23;20341;-71
2021/11/23 04:47:10;;;;;;;4.07;2.10;;;;;;;;;;6137564;23;20056;-72
2021/11/23 04:49:36;;;;;;;3.75;2.00;;;;;;;;;;6139848;23;20001;-72
2021/11/23 04:52:03;;;;;;;4.68;1.95;;;;;;;;;;6140000;23;20009;-71
2021/11/23 04:54:29;;;;;;;3.60;2.17;;;;;;;;;;6139092;23;19998;-72
2021/11/23 04:56:55;;;;;;;5.45;1.90;;;;;;;;;;6137974;23;20040;-72
2021/11/23 04:59:21;;;;;;;9.45;2.00;;;;;;;;;;6138877;23;20008;-72
2021/11/23 05:01:47;;;;;;;4.15;1.88;;;;;;;;;;6139520;23;20016;-72
2021/11/23 05:04:13;;;;;;;4.88;2.00;;;;;;;;;;6139086;23;20339;-72
2021/11/23 05:06:40;;;;;;;4.85;2.03;;;;;;;;;;6139616;23;20005;-71
2021/11/23 05:09:06;;;;;;;5.55;2.40;;;;;;;;;;6110936;23;20354;-71
2021/11/23 05:11:35;;;;;;;3.67;1.55;;;;;;;;;;6138558;23;20105;-71
2021/11/23 05:14:01;;;;;;;3.90;1.52;;;;;;;;;;6138221;23;20009;-73
2021/11/23 05:16:28;;;;;;;5.35;1.73;;;;;;;;;;6139435;23;20009;-72
2021/11/23 05:18:54;;;;;;;3.95;1.50;;;;;;;;;;6138679;23;20493;-71
2021/11/23 05:21:20;;;;;;;3.17;1.40;;;;;;;;;;6136818;23;20084;-71
2021/11/23 05:23:46;;;;;;;4.63;1.83;;;;;;;;;;6113069;23;20208;-71
2021/11/23 05:26:12;;;;;;;5.70;1.80;;;;;;;;;;6138717;23;20025;-71
2021/11/23 05:28:40;;;;;;;4.90;1.77;;;;;;;;;;6139842;23;20025;-72
2021/11/23 05:31:06;;;;;;;4.03;1.60;;;;;;;;;;6139126;23;20080;-71
2021/11/23 05:33:32;;;;;;;3.05;1.80;;;;;;;;;;6137570;23;20021;-71
2021/11/23 05:35:58;;;;;;;2.72;1.40;;;;;;;;;;6138253;23;20060;-71
2021/11/23 05:38:24;;;;;;;4.05;1.58;;;;;;;;;;6139367;23;20017;-71
2021/11/23 05:40:50;;;;;;;3.08;1.48;;;;;;;;;;6137962;23;20002;-71
2021/11/23 05:43:17;;;;;;;3.80;1.33;;;;;;;;;;6136267;23;20005;-71
2021/11/23 05:45:43;;;;;;;3.65;1.50;;;;;;;;;;6138714;23;20063;-73
2021/11/23 05:48:10;;;;;;;3.65;1.27;;;;;;;;;;6139048;23;20005;-71
2021/11/23 05:50:36;;;;;;;3.58;1.13;;;;;;;;;;6140909;23;20056;-73
2021/11/23 05:53:02;;;;;;;4.72;1.20;;;;;;;;;;6139883;23;20397;-71
2021/11/23 05:55:29;;;;;;;2.67;1.35;;;;;;;;;;6138293;23;20004;-71
2021/11/23 05:57:55;;;;;;;2.97;1.10;;;;;;;;;;6139813;23;20423;-72
2021/11/23 06:00:21;;;;;;;3.47;1.00;;;;;;;;;;6140066;23;20399;-72
2021/11/23 06:02:47;;;;;;;2.35;1.20;;;;;;;;;;6140173;23;20434;-73
2021/11/23 06:05:13;;;;;;;5.75;1.27;;;;;;;;;;6138141;23;20434;-74
2021/11/23 06:07:39;;;;;;;2.92;1.52;;;;;;;;;;6139710;23;20009;-75
2021/11/23 06:10:06;;;;;;;2.85;1.25;;;;;;;;;;6141321;23;20001;-74
2021/11/23 06:12:32;;;;;;;2.03;1.23;;;;;;;;;;6140038;23;20024;-73
2021/11/23 06:14:59;;;;;;;2.17;1.05;;;;;;;;;;6140356;23;20323;-72
2021/11/23 06:17:27;;;;;;;2.30;1.10;;;;;;;;;;6142229;23;20438;-71
2021/11/23 06:19:54;;;;;;;1.60;1.20;;;;;;;;;;6142690;23;20085;-72
2021/11/23 06:22:21;;;;;;;2.80;1.20;;;;;;;;;;6142581;23;20009;-72
2021/11/23 06:24:47;;;;;;;2.65;0.90;;;;;;;;;;6143380;23;20072;-71
2021/11/23 06:27:14;;;;;;;3.95;0.95;;;;;;;;;;6116703;23;20028;-71
2021/11/23 06:29:40;;;;;;;1.73;0.85;;;;;;;;;;6140856;23;20006;-73
2021/11/23 06:32:07;;;;;;;4.90;0.88;;;;;;;;;;6143785;23;20010;-73
2021/11/23 06:34:33;;;;;;;2.00;0.73;;;;;;;;;;6143695;23;20477;-74
2021/11/23 06:37:00;;;;;;;6.70;0.98;;;;;;;;;;6141566;23;20017;-73
2021/11/23 06:39:27;;;;;;;2.45;1.00;;;;;;;;;;6143037;23;20056;-73
2021/11/23 06:41:53;;;;;;;6.35;0.95;;;;;;;;;;6142690;23;20084;-73
2021/11/23 06:44:19;;;;;;;3.35;1.02;;;;;;;;;;6142786;23;20075;-73
2021/11/23 06:46:45;;;;;;;2.15;0.80;;;;;;;;;;6141074;23;20005;-73
2021/11/23 06:49:12;;;;;;;2.30;1.25;;;;;;;;;;6142695;23;20001;-73
2021/11/23 06:51:38;;;;;;;1.52;0.80;;;;;;;;;;6142904;23;20339;-73
2021/11/23 06:54:04;;;;;;;2.75;0.70;;;;;;;;;;6142821;23;20416;-73
2021/11/23 06:56:31;;;;;;;3.33;1.00;;;;;;;;;;6142522;23;20012;-73
2021/11/23 06:58:57;;;;;;;2.40;1.08;;;;;;;;;;6141439;23;20029;-73
2021/11/23 07:01:23;;;;;;;3.17;1.33;;;;;;;;;;6143469;23;20008;-73
2021/11/23 07:03:50;;;;;;;3.00;1.10;;;;;;;;;;6143371;23;20001;-73
2021/11/23 07:06:16;;;;;;;3.17;0.82;;;;;;;;;;6143367;23;20025;-73
2021/11/23 07:08:42;;;;;;;2.88;1.30;;;;;;;;;;6143590;23;20113;-74
2021/11/23 07:11:08;;;;;;;1.30;0.63;;;;;;;;;;6143024;23;20430;-74
2021/11/23 07:13:35;;;;;;;4.90;0.90;;;;;;;;;;6140032;23;20410;-74
2021/11/23 07:16:01;;;;;;;3.03;0.80;;;;;;;;;;6143151;23;20009;-73
2021/11/23 07:18:27;;;;;;;3.55;0.80;;;;;;;;;;6142666;23;20335;-73
2021/11/23 07:20:55;;;;;;;3.53;0.80;;;;;;;;;;6143694;23;20245;-74
2021/11/23 07:23:21;;;;;;;2.05;0.77;;;;;;;;;;6143199;23;20009;-74
2021/11/23 07:25:47;;;;;;;1.98;0.55;;;;;;;;;;6140933;23;20068;-74
2021/11/23 07:28:14;;;;;;;2.67;0.70;;;;;;;;;;6143501;23;20006;-74
2021/11/23 07:30:40;;;;;;;3.13;0.60;;;;;;;;;;6143356;23;20008;-74
2021/11/23 07:33:06;;;;;;;2.45;0.52;;;;;;;;;;6142751;23;20001;-74
2021/11/23 07:35:32;;;;;;;2.28;0.47;;;;;;;;;;6143099;23;20013;-74
2021/11/23 07:37:59;;;;;;;1.83;0.57;;;;;;;;;;6141311;23;20017;-74
2021/11/23 07:40:26;;;;;;;1.27;0.70;;;;;;;;;;6143049;23;20005;-74
2021/11/23 07:42:52;;;;;;;2.60;0.70;;;;;;;;;;6142021;23;20041;-74
2021/11/23 07:45:18;;;;;;;1.20;0.68;;;;;;;;;;6143239;23;20055;-74
2021/11/23 07:47:44;;;;;;;2.28;0.60;;;;;;;;;;6142131;23;20002;-74
2021/11/23 07:50:11;;;;;;;1.70;0.57;;;;;;;;;;6137308;23;20052;-74
2021/11/23 07:52:37;;;;;;;3.42;0.85;;;;;;;;;;6141239;23;20286;-74
2021/11/23 07:55:04;;;;;;;2.42;1.13;;;;;;;;;;6142574;23;20002;-74
2021/11/23 07:57:32;;;;;;;2.55;0.80;;;;;;;;;;6142557;23;20017;-75
2021/11/23 07:59:58;;;;;;;1.15;0.80;;;;;;;;;;6140527;23;20009;-74
2021/11/23 08:02:24;;;;;;;1.95;0.50;;;;;;;;;;6143076;23;20378;-74
2021/11/23 08:04:50;;;;;;;1.02;0.60;;;;;;;;;;6142529;23;20419;-74
2021/11/23 08:07:17;;;;;;;1.17;0.60;;;;;;;;;;6142113;23;20008;-74
2021/11/23 08:09:44;;;;;;;2.85;0.68;;;;;;;;;;6140787;23;20005;-74
2021/11/23 08:12:10;;;;;;;1.33;0.60;;;;;;;;;;6141924;23;20444;-74
2021/11/23 08:14:37;;;;;;;3.22;1.08;;;;;;;;;;6143122;23;20001;-74
2021/11/23 08:17:03;;;;;;;2.03;0.60;;;;;;;;;;6142549;23;20013;-74
2021/11/23 08:19:29;;;;;;;2.45;0.77;;;;;;;;;;6140054;23;20050;-74
2021/11/23 08:21:55;;;;;;;1.95;0.70;;;;;;;;;;6142484;23;20077;-74
2021/11/23 08:24:21;;;;;;;2.20;0.80;;;;;;;;;;6142639;23;20001;-75
2021/11/23 08:26:48;;;;;;;2.70;1.02;;;;;;;;;;6142153;23;20017;-74
2021/11/23 08:29:14;;;;;;;2.40;0.90;;;;;;;;;;6141897;23;20008;-74
2021/11/23 08:31:41;;;;;;;2.03;1.08;;;;;;;;;;6139292;23;20108;-72
2021/11/23 08:34:07;;;;;;;2.45;0.90;;;;;;;;;;6138724;23;20112;-73
2021/11/23 08:36:34;;;;;;;3.38;1.05;;;;;;;;;;6141649;23;20013;-74
2021/11/23 08:39:00;;;;;;;1.00;0.52;;;;;;;;;;6141323;23;20005;-73
2021/11/23 08:41:27;;;;;;;2.97;0.77;;;;;;;;;;6139908;23;20443;-73
2021/11/23 08:43:53;;;;;;;3.05;0.88;;;;;;;;;;6142496;23;20006;-73
2021/11/23 08:46:20;;;;;;;3.42;0.90;;;;;;;;;;6141581;23;20184;-73
2021/11/23 08:48:46;;;;;;;2.75;1.08;;;;;;;;;;6141252;23;20554;-72
2021/11/23 08:51:15;;;;;;;2.05;0.95;;;;;;;;;;6141368;23;20416;-74
2021/11/23 08:53:41;;;;;;;5.43;1.23;;;;;;;;;;6138978;23;20182;-74
2021/11/23 08:56:08;;;;;;;2.35;1.08;;;;;;;;;;6141182;23;20366;-75
2021/11/23 08:58:35;;;;;;;2.45;0.60;;;;;;;;;;6116567;23;20018;-75
2021/11/23 09:01:01;;;;;;;4.13;0.85;;;;;;;;;;6139813;23;20013;-74
2021/11/23 09:03:27;;;;;;;1.30;0.70;;;;;;;;;;6141767;23;20005;-74
2021/11/23 09:05:54;;;;;;;3.05;0.88;;;;;;;;;;6142574;23;20008;-74
2021/11/23 09:08:20;;;;;;;2.17;0.75;;;;;;;;;;6140973;23;19998;-74
2021/11/23 09:10:47;;;;;;;2.55;0.98;;;;;;;;;;6140862;23;19997;-74
2021/11/23 09:13:14;;;;;;;2.40;0.80;;;;;;;;;;6138728;23;20009;-74
2021/11/23 09:15:40;;;;;;;1.90;0.82;;;;;;;;;;6141155;23;20001;-74
2021/11/23 09:18:07;;;;;;;2.42;0.90;;;;;;;;;;6142712;23;20135;-75
2021/11/23 09:20:37;;;;;;;2.50;0.85;;;;;;;;;;6141321;23;20351;-74
2021/11/23 09:23:05;;;;;;;6.68;0.95;;;;;;;;;;6114146;23;20076;-74
2021/11/23 09:25:31;;;;;;;2.53;0.90;;;;;;;;;;6141271;23;20029;-74
2021/11/23 09:28:00;;;;;;;1.25;0.90;;;;;;;;;;6143095;23;20431;-74
2021/11/23 09:30:26;;;;;;;2.45;0.82;;;;;;;;;;6141342;23;20001;-74
2021/11/23 09:32:53;;;;;;;1.15;0.70;;;;;;;;;;6141849;23;20068;-74
2021/11/23 09:35:19;;;;;;;2.65;1.50;;;;;;;;;;6142709;23;20044;-73
2021/11/23 09:37:45;;;;;;;3.03;1.33;;;;;;;;;;6141027;23;20552;-73
2021/11/23 09:40:12;;;;;;;4.32;1.27;;;;;;;;;;6142855;23;20417;-74
2021/11/23 09:42:38;;;;;;;2.13;1.00;;;;;;;;;;6140512;23;20293;-73
2021/11/23 09:45:05;;;;;;;2.72;1.23;;;;;;;;;;6141491;23;20049;-73
2021/11/23 09:47:32;;;;;;;2.45;1.20;;;;;;;;;;6115417;23;20092;-74
2021/11/23 09:49:58;;;;;;;3.15;1.42;;;;;;;;;;6139220;23;20010;-74
2021/11/23 09:52:25;;;;;;;5.03;2.10;;;;;;;;;;6144287;23;20067;-74
2021/11/23 09:54:51;;;;;;;9.25;2.15;;;;;;;;;;6144270;23;20002;-74
2021/11/23 09:57:17;;;;;;;3.40;1.50;;;;;;;;;;6143005;23;20017;-74
2021/11/23 09:59:44;;;;;;;2.92;1.40;;;;;;;;;;6142887;23;20322;-74
2021/11/23 10:02:10;;;;;;;3.60;1.20;;;;;;;;;;6141012;23;20012;-73
2021/11/23 10:04:37;;;;;;;4.35;1.17;;;;;;;;;;6143702;23;20001;-74
2021/11/23 10:07:05;;;;;;;2.40;0.90;;;;;;;;;;6143159;23;20009;-73
2021/11/23 10:09:39;;;;;;;3.15;1.00;;;;;;;;;;6143029;23;20175;-73
2021/11/23 10:12:14;;;;;;;4.07;0.98;;;;;;;;;;6142550;23;20001;-74
2021/11/23 10:14:41;;;;;;;2.15;1.13;;;;;;;;;;6142016;23;20056;-74
2021/11/23 10:17:24;;;;;;;3.85;1.35;;;;;;;;;;6142720;23;20021;-74
2021/11/23 10:19:50;;;;;;;5.15;1.50;;;;;;;;;;6118111;23;20056;-74
2021/11/23 10:22:37;;;;;;;4.93;1.38;;;;;;;;;;6117138;23;20017;-73
2021/11/23 10:25:05;;;;;;;5.70;1.50;;;;;;;;;;6141583;23;20009;-73
2021/11/23 10:27:35;;;;;;;5.15;2.47;;;;;;;;;;6143062;23;20041;-73
2021/11/23 10:30:03;;;;;;;2.88;1.10;;;;;;;;;;6143555;23;20447;-74
2021/11/23 10:32:47;;;;;;;2.55;1.08;;;;;;;;;;6143463;23;20005;-73
2021/11/23 10:35:14;;;;;;;3.42;1.60;;;;;;;;;;6143510;23;20057;-74
2021/11/23 10:37:40;;;;;;;1.77;1.02;;;;;;;;;;6141769;23;20419;-73
2021/11/23 10:40:13;;;;;;;1.85;1.00;;;;;;;;;;6142918;23;20234;-74
2021/11/23 10:42:39;;;;;;;3.53;1.13;;;;;;;;;;6141483;23;20399;-74
2021/11/23 10:45:10;;;;;;;1.42;1.05;;;;;;;;;;6140813;23;20033;-73
2021/11/23 10:47:38;;;;;;;4.88;1.10;;;;;;;;;;6143300;23;20330;-73
2021/11/23 10:50:08;;;;;;;2.45;1.08;;;;;;;;;;6142322;23;20135;-73
2021/11/23 10:52:38;;;;;;;2.72;1.30;;;;;;;;;;6140825;23;20520;-74
2021/11/23 10:55:07;;;;;;;1.73;1.10;;;;;;;;;;6143952;23;20088;-74
2021/11/23 10:57:40;;;;;;;3.15;1.10;;;;;;;;;;6142118;23;20105;-74
2021/11/23 11:00:08;;;;;;;3.33;1.25;;;;;;;;;;6143027;23;20013;-74
2021/11/23 11:02:34;;;;;;;2.80;1.17;;;;;;;;;;6141949;23;20009;-73
2021/11/23 11:05:00;;;;;;;4.88;1.35;;;;;;;;;;6142220;23;20036;-74
2021/11/23 11:07:28;;;;;;;2.55;1.30;;;;;;;;;;6140081;23;20029;-74
2021/11/23 11:09:56;;;;;;;2.65;1.30;;;;;;;;;;6142443;23;20071;-74
2021/11/23 11:12:22;;;;;;;3.60;1.30;;;;;;;;;;6140865;23;20005;-74
2021/11/23 11:14:51;;;;;;;2.03;1.08;;;;;;;;;;6142362;23;20426;-74
2021/11/23 11:17:17;;;;;;;2.22;0.82;;;;;;;;;;6142492;23;20088;-74
2021/11/23 11:19:48;;;;;;;3.40;0.82;;;;;;;;;;6141081;23;20002;-74
2021/11/23 11:22:16;;;;;;;2.95;1.02;;;;;;;;;;6141884;23;20005;-74
2021/11/23 11:24:55;;;;;;;1.45;0.80;;;;;;;;;;6143414;23;20008;-74
2021/11/23 11:27:31;;;;;;;2.42;0.95;;;;;;;;;;6144208;23;20048;-74
2021/11/23 11:30:16;;;;;;;2.70;1.10;;;;;;;;;;6140084;23;20493;-74
2021/11/23 11:32:42;;;;;;;1.23;0.75;;;;;;;;;;6141684;23;20135;-74
2021/11/23 11:35:21;;;;;;;2.05;0.80;;;;;;;;;;6141941;23;20135;-74
2021/11/23 11:37:47;;;;;;;1.67;0.70;;;;;;;;;;6141620;23;20029;-74
2021/11/23 11:40:21;;;;;;;2.90;0.90;;;;;;;;;;6142355;23;20370;-74
2021/11/23 11:42:48;;;;;;;2.53;1.10;;;;;;;;;;6138397;23;20031;-74
2021/11/23 11:45:15;;;;;;;2.88;0.90;;;;;;;;;;6141965;23;20001;-74
2021/11/23 11:47:42;;;;;;;1.35;0.80;;;;;;;;;;6141479;23;20458;-73
2021/11/23 11:50:15;;;;;;;2.00;0.93;;;;;;;;;;6140064;23;20178;-74
2021/11/23 11:52:57;;;;;;;2.75;0.98;;;;;;;;;;6142732;23;20013;-74
2021/11/23 11:55:30;;;;;;;2.65;1.08;;;;;;;;;;6141805;23;20040;-74
2021/11/23 11:57:58;;;;;;;3.03;0.93;;;;;;;;;;6141563;23;20342;-73
2021/11/23 12:00:26;;;;;;;2.13;1.00;;;;;;;;;;6140001;23;20108;-73
2021/11/23 12:02:54;;;;;;;1.45;0.85;;;;;;;;;;6141819;23;20604;-74
2021/11/23 12:05:21;;;;;;;0.90;0.70;;;;;;;;;;6142502;23;20012;-74
2021/11/23 12:07:53;;;;;;;2.33;0.90;;;;;;;;;;6142578;23;20001;-74
2021/11/23 12:10:30;;;;;;;2.25;0.90;;;;;;;;;;6142027;23;19998;-74
2021/11/23 12:12:56;;;;;;;1.77;0.70;;;;;;;;;;6138030;23;20149;-74
2021/11/23 12:15:30;;;;;;;3.17;0.88;;;;;;;;;;6142149;23;19997;-74
2021/11/23 12:18:03;;;;;;;1.67;0.80;;;;;;;;;;6141765;23;20096;-74
2021/11/23 12:20:38;;;;;;;2.17;1.35;;;;;;;;;;6142585;23;20006;-74
2021/11/23 12:23:16;;;;;;;2.55;1.10;;;;;;;;;;6139953;23;20013;-74
2021/11/23 12:25:59;;;;;;;3.30;1.10;;;;;;;;;;6141392;23;20009;-74
2021/11/23 12:28:27;;;;;;;2.40;0.90;;;;;;;;;;6116247;23;20013;-74
2021/11/23 12:30:54;;;;;;;2.05;1.10;;;;;;;;;;6141967;23;19998;-74
2021/11/23 12:33:20;;;;;;;3.85;1.08;;;;;;;;;;6139417;23;20009;-74
2021/11/23 12:35:48;;;;;;;1.55;0.98;;;;;;;;;;6142575;23;20001;-74
2021/11/23 12:38:28;;;;;;;1.90;1.30;;;;;;;;;;6141611;23;20017;-73
2021/11/23 12:40:55;;;;;;;1.20;0.90;;;;;;;;;;6140034;23;20226;-74
2021/11/23 12:43:21;;;;;;;1.73;1.00;;;;;;;;;;6140600;23;20406;-74
2021/11/23 12:45:47;;;;;;;1.10;0.90;;;;;;;;;;6142423;23;20061;-74
2021/11/23 12:48:16;;;;;;;3.70;1.20;;;;;;;;;;6141315;23;20021;-74
2021/11/23 12:50:42;;;;;;;1.73;0.90;;;;;;;;;;6142126;23;20002;-74
2021/11/23 12:53:11;;;;;;;2.63;0.90;;;;;;;;;;6140107;23;20064;-74
2021/11/23 12:55:38;;;;;;;6.47;1.30;;;;;;;;;;6142122;23;20009;-74
2021/11/23 12:58:04;;;;;;;4.10;1.20;;;;;;;;;;6141825;23;20017;-74
2021/11/23 13:00:31;;;;;;;2.53;1.00;;;;;;;;;;6141320;23;19998;-74
2021/11/23 13:02:57;;;;;;;2.17;0.95;;;;;;;;;;6142182;23;20006;-73
2021/11/23 13:05:25;;;;;;;1.58;1.20;;;;;;;;;;6139412;23;20010;-74
2021/11/23 13:07:54;;;;;;;2.33;1.30;;;;;;;;;;6141135;23;20068;-74
2021/11/23 13:10:47;;;;;;;2.53;1.05;;;;;;;;;;6141900;23;20020;-71
2021/11/23 13:13:15;;;;;;;3.92;1.38;;;;;;;;;;6134912;23;20018;-74
2021/11/23 13:15:46;;;;;;;2.42;1.00;;;;;;;;;;6139639;23;20006;-74
2021/11/23 13:18:14;;;;;;;1.42;1.10;;;;;;;;;;6141030;23;20235;-74
2021/11/23 13:20:45;;;;;;;4.95;1.23;;;;;;;;;;6142584;23;20431;-74
2021/11/23 13:23:14;;;;;;;3.63;1.25;;;;;;;;;;6141059;23;20076;-73
2021/11/23 13:25:41;;;;;;;1.77;1.20;;;;;;;;;;6141207;23;20033;-74
2021/11/23 13:28:09;;;;;;;2.00;1.10;;;;;;;;;;6143540;23;20655;-74
2021/11/23 13:30:40;;;;;;;2.20;1.10;;;;;;;;;;6143540;23;20526;-74
2021/11/23 13:33:06;;;;;;;4.20;1.67;;;;;;;;;;6144019;23;20005;-74
2021/11/23 13:35:32;;;;;;;3.67;1.30;;;;;;;;;;6143597;23;20507;-74
2021/11/23 13:37:58;;;;;;;2.42;1.48;;;;;;;;;;6141239;23;20403;-74
2021/11/23 13:40:25;;;;;;;4.55;1.42;;;;;;;;;;6144533;23;20373;-74
2021/11/23 13:42:52;;;;;;;4.93;1.15;;;;;;;;;;6142385;23;20647;-74
2021/11/23 13:45:21;;;;;;;3.60;1.10;;;;;;;;;;6114624;23;20478;-73
2021/11/23 13:47:47;;;;;;;4.22;1.20;;;;;;;;;;6142901;23;20009;-74
2021/11/23 13:50:14;;;;;;;2.80;1.23;;;;;;;;;;6143272;23;20032;-74
2021/11/23 13:52:41;;;;;;;2.53;1.10;;;;;;;;;;6143196;23;20389;-73
2021/11/23 13:55:09;;;;;;;3.40;1.38;;;;;;;;;;6142576;23;19994;-73
2021/11/23 13:57:37;;;;;;;5.25;1.20;;;;;;;;;;6142568;23;20005;-72
2021/11/23 14:00:08;;;;;;;4.80;1.05;;;;;;;;;;6141422;23;20009;-72
2021/11/23 14:02:40;;;;;;;7.88;1.95;;;;;;;;;;6143162;23;20005;-72
2021/11/23 14:05:07;;;;;;;1.77;0.82;;;;;;;;;;6142931;23;20032;-72
2021/11/23 14:07:48;;;;;;;6.43;2.15;;;;;;;;;;6142514;23;20280;-72
2021/11/23 14:10:25;;;;;;;2.15;1.27;;;;;;;;;;6143145;23;20311;-72
2021/11/23 14:12:51;;;;;;;2.25;1.23;;;;;;;;;;6142058;23;20013;-72
2021/11/23 14:15:20;;;;;;;3.25;1.35;;;;;;;;;;6140529;23;20296;-72
2021/11/23 14:18:05;;;;;;;5.20;1.30;;;;;;;;;;6143974;23;20076;-73
2021/11/23 14:20:47;;;;;;;2.42;1.77;;;;;;;;;;6144243;23;19997;-73
2021/11/23 14:23:17;;;;;;;2.65;1.17;;;;;;;;;;6142794;23;20009;-73
2021/11/23 14:25:46;;;;;;;2.55;1.55;;;;;;;;;;6142552;23;20075;-73
2021/11/23 14:28:14;;;;;;;2.65;1.13;;;;;;;;;;6141054;23;19998;-73
2021/11/23 14:30:42;;;;;;;4.30;1.50;;;;;;;;;;6119251;23;20078;-73
2021/11/23 14:33:09;;;;;;;4.70;1.77;;;;;;;;;;6147648;23;20309;-74
2021/11/23 14:35:35;;;;;;;4.13;1.65;;;;;;;;;;6118952;23;20010;-74
2021/11/23 14:38:02;;;;;;;8.50;2.28;;;;;;;;;;6140844;23;20021;-73
2021/11/23 14:40:28;;;;;;;4.97;1.50;;;;;;;;;;6142390;23;20007;-73
2021/11/23 14:42:54;;;;;;;3.50;2.03;;;;;;;;;;6141667;23;20010;-73
2021/11/23 14:45:21;;;;;;;6.07;1.70;;;;;;;;;;6142570;23;19998;-74